Airfield :
LOGIN :

Register | Disclaimer

   EN    FR    IT 

 










Legend :    VFR   Marginal VFR   IFR   Intensive IFR   Very Intensive IFR
Visi :
Ceiling :
>= 8 km
>= 3000ft
5 to 8 km
1000 to 3000 ft
1500m to 5 km
500 to 1000 ft
800 to 1500m
200 to 500 ft
< 800m
< 200 ft
Symbols :   Thunderstorms  Fog  Heavy snow  Heavy precipitations  Wind > 20 kt
SIGMETs :     Misc.  Thunderstorms  Icing  Turbulence  Mountain Waves  Volcanic Ashes






- Airport Elevation : -13 ft
- IATA code : LEY


EHLE - Lelystad

CURRENT METAR :
  • 191855Z AUTO 32006KT 9000 FEW020 SCT031 04/03 Q1044 NOSIG

EXPIRED METARs :
  • 191825Z AUTO 32006KT 9000 FEW021 SCT025 04/03 Q1044 NOSIG
  • 191755Z AUTO 33005KT 9000 FEW022 SCT027 03/03 Q1044 NOSIG
  • 191725Z AUTO 33005KT 9999 FEW029 03/03 Q1044 NOSIG
  • 191655Z AUTO 33005KT 9999 SCT021 SCT033 04/03 Q1043 NOSIG
  • 191625Z AUTO 34005KT 9999 NCD 05/03 Q1043 NOSIG

TAF TAF EHLE
Valid from the 19 at 18:00 until the 21 at 00:00 UTC


191718Z 1918/2024 33004KT CAVOK
BECMG 1921/1924 4000 BR MIFG
PROB40
TEMPO 2000/2010 0800 BCFG
PROB30
TEMPO 2006/2011 0400 FG FZFG VV001
BECMG 2009/2012 8000 NSW
BECMG 2016/2019 4000 BR
PROB30 2019/2022 1500 BCFG
PROB40 2021/2024 0800 FG VV001



MET'MAP, your aeronautical weather chart ! - Copyright ORBIFLY December 2007 - Disclaimer

ORBIFLY MET'MAP TEAM :

Programming & Development : Alexandra Zaïnal
Concept & original design : Baudouin d'Aumeries
Assistance for programming : Marc-Olivier Méhu
Technical & hardware support : Manuel Goepfert

Contact : metmap@orbifly.com




SOURCES & CREDITS :

   NOAA